sensor_id;sensor_type;location;lat;lon;timestamp;P1;durP1;ratioP1;P2;durP2;ratioP2
10283;SDS011;5187;52.378;9.018;2022-09-04T00:01:44;4.00;;;3.10;;
10283;SDS011;5187;52.378;9.018;2022-09-04T00:04:19;6.10;;;3.40;;
10283;SDS011;5187;52.378;9.018;2022-09-04T00:06:54;4.63;;;3.10;;
10283;SDS011;5187;52.378;9.018;2022-09-04T00:09:26;6.70;;;3.30;;
10283;SDS011;5187;52.378;9.018;2022-09-04T00:12:00;7.20;;;3.13;;
10283;SDS011;5187;52.378;9.018;2022-09-04T00:14:34;4.10;;;3.20;;
10283;SDS011;5187;52.378;9.018;2022-09-04T00:17:05;5.57;;;3.03;;
10283;SDS011;5187;52.378;9.018;2022-09-04T00:19:36;4.60;;;3.00;;
10283;SDS011;5187;52.378;9.018;2022-09-04T00:22:11;7.03;;;3.60;;
10283;SDS011;5187;52.378;9.018;2022-09-04T00:24:47;4.13;;;3.10;;
10283;SDS011;5187;52.378;9.018;2022-09-04T00:27:20;5.67;;;3.10;;
10283;SDS011;5187;52.378;9.018;2022-09-04T00:29:51;5.33;;;3.10;;
10283;SDS011;5187;52.378;9.018;2022-09-04T00:32:31;4.60;;;3.00;;
10283;SDS011;5187;52.378;9.018;2022-09-04T00:35:03;4.10;;;2.93;;
10283;SDS011;5187;52.378;9.018;2022-09-04T00:37:34;5.43;;;3.30;;
10283;SDS011;5187;52.378;9.018;2022-09-04T00:40:05;5.40;;;2.83;;
10283;SDS011;5187;52.378;9.018;2022-09-04T00:42:57;5.07;;;2.97;;
10283;SDS011;5187;52.378;9.018;2022-09-04T00:45:34;4.57;;;2.80;;
10283;SDS011;5187;52.378;9.018;2022-09-04T00:48:13;4.77;;;2.87;;
10283;SDS011;5187;52.378;9.018;2022-09-04T00:50:58;4.00;;;2.80;;
10283;SDS011;5187;52.378;9.018;2022-09-04T00:53:33;5.13;;;2.80;;
10283;SDS011;5187;52.378;9.018;2022-09-04T00:56:10;3.43;;;2.97;;
10283;SDS011;5187;52.378;9.018;2022-09-04T00:58:48;5.03;;;3.10;;
10283;SDS011;5187;52.378;9.018;2022-09-04T01:01:22;4.10;;;3.20;;
10283;SDS011;5187;52.378;9.018;2022-09-04T01:03:59;4.80;;;3.10;;
10283;SDS011;5187;52.378;9.018;2022-09-04T01:06:33;4.47;;;2.73;;
10283;SDS011;5187;52.378;9.018;2022-09-04T01:09:10;2.77;;;2.47;;
10283;SDS011;5187;52.378;9.018;2022-09-04T01:11:46;4.30;;;2.67;;
10283;SDS011;5187;52.378;9.018;2022-09-04T01:14:21;6.67;;;2.90;;
10283;SDS011;5187;52.378;9.018;2022-09-04T01:16:58;4.77;;;2.70;;
10283;SDS011;5187;52.378;9.018;2022-09-04T01:19:35;3.63;;;2.77;;
10283;SDS011;5187;52.378;9.018;2022-09-04T01:22:11;4.73;;;2.70;;
10283;SDS011;5187;52.378;9.018;2022-09-04T01:24:47;4.33;;;2.90;;
10283;SDS011;5187;52.378;9.018;2022-09-04T01:27:21;6.13;;;2.83;;
10283;SDS011;5187;52.378;9.018;2022-09-04T01:29:58;5.97;;;2.90;;
10283;SDS011;5187;52.378;9.018;2022-09-04T01:32:30;4.10;;;2.90;;
10283;SDS011;5187;52.378;9.018;2022-09-04T01:35:04;4.23;;;2.83;;
10283;SDS011;5187;52.378;9.018;2022-09-04T01:37:41;4.33;;;2.70;;
10283;SDS011;5187;52.378;9.018;2022-09-04T01:40:18;2.97;;;2.67;;
10283;SDS011;5187;52.378;9.018;2022-09-04T01:43:03;3.30;;;2.63;;
10283;SDS011;5187;52.378;9.018;2022-09-04T01:45:36;5.97;;;2.73;;
10283;SDS011;5187;52.378;9.018;2022-09-04T01:48:10;4.60;;;2.70;;
10283;SDS011;5187;52.378;9.018;2022-09-04T01:50:41;3.87;;;2.87;;
10283;SDS011;5187;52.378;9.018;2022-09-04T01:53:11;3.57;;;2.80;;
10283;SDS011;5187;52.378;9.018;2022-09-04T01:55:43;3.93;;;2.63;;
10283;SDS011;5187;52.378;9.018;2022-09-04T01:58:18;4.93;;;2.70;;
10283;SDS011;5187;52.378;9.018;2022-09-04T02:00:55;5.80;;;3.03;;
10283;SDS011;5187;52.378;9.018;2022-09-04T02:03:25;5.23;;;2.80;;
10283;SDS011;5187;52.378;9.018;2022-09-04T02:05:58;5.00;;;2.87;;
10283;SDS011;5187;52.378;9.018;2022-09-04T02:08:37;5.27;;;2.63;;
10283;SDS011;5187;52.378;9.018;2022-09-04T02:11:11;4.63;;;2.90;;
10283;SDS011;5187;52.378;9.018;2022-09-04T02:13:46;3.27;;;2.97;;
10283;SDS011;5187;52.378;9.018;2022-09-04T02:16:23;6.40;;;3.17;;
10283;SDS011;5187;52.378;9.018;2022-09-04T02:18:57;3.30;;;2.80;;
10283;SDS011;5187;52.378;9.018;2022-09-04T02:21:29;4.23;;;2.90;;
10283;SDS011;5187;52.378;9.018;2022-09-04T02:24:01;4.40;;;2.80;;
10283;SDS011;5187;52.378;9.018;2022-09-04T02:26:32;4.03;;;2.63;;
10283;SDS011;5187;52.378;9.018;2022-09-04T02:29:07;5.73;;;3.17;;
10283;SDS011;5187;52.378;9.018;2022-09-04T02:31:40;5.17;;;2.80;;
10283;SDS011;5187;52.378;9.018;2022-09-04T02:34:12;3.13;;;2.80;;
10283;SDS011;5187;52.378;9.018;2022-09-04T02:36:45;4.57;;;2.90;;
10283;SDS011;5187;52.378;9.018;2022-09-04T02:39:21;4.63;;;3.20;;
10283;SDS011;5187;52.378;9.018;2022-09-04T02:41:55;3.10;;;2.80;;
10283;SDS011;5187;52.378;9.018;2022-09-04T02:44:34;3.53;;;2.77;;
10283;SDS011;5187;52.378;9.018;2022-09-04T02:47:09;4.37;;;2.77;;
10283;SDS011;5187;52.378;9.018;2022-09-04T02:49:43;4.93;;;3.00;;
10283;SDS011;5187;52.378;9.018;2022-09-04T02:52:18;3.03;;;2.60;;
10283;SDS011;5187;52.378;9.018;2022-09-04T02:54:54;4.17;;;3.27;;
10283;SDS011;5187;52.378;9.018;2022-09-04T02:57:27;4.07;;;3.30;;
10283;SDS011;5187;52.378;9.018;2022-09-04T03:00:05;3.87;;;3.07;;
10283;SDS011;5187;52.378;9.018;2022-09-04T03:02:41;6.23;;;3.27;;
10283;SDS011;5187;52.378;9.018;2022-09-04T03:05:13;3.90;;;3.20;;
10283;SDS011;5187;52.378;9.018;2022-09-04T03:07:45;4.93;;;3.47;;
10283;SDS011;5187;52.378;9.018;2022-09-04T03:10:14;5.10;;;3.10;;
10283;SDS011;5187;52.378;9.018;2022-09-04T03:12:44;5.07;;;3.40;;
10283;SDS011;5187;52.378;9.018;2022-09-04T03:15:18;5.23;;;3.37;;
10283;SDS011;5187;52.378;9.018;2022-09-04T03:17:50;5.80;;;3.23;;
10283;SDS011;5187;52.378;9.018;2022-09-04T03:20:24;3.67;;;3.10;;
10283;SDS011;5187;52.378;9.018;2022-09-04T03:22:55;4.93;;;3.30;;
10283;SDS011;5187;52.378;9.018;2022-09-04T03:25:31;4.03;;;3.27;;
10283;SDS011;5187;52.378;9.018;2022-09-04T03:28:02;6.00;;;3.40;;
10283;SDS011;5187;52.378;9.018;2022-09-04T03:30:32;5.70;;;3.47;;
10283;SDS011;5187;52.378;9.018;2022-09-04T03:33:03;4.50;;;3.17;;
10283;SDS011;5187;52.378;9.018;2022-09-04T03:35:36;4.60;;;3.30;;
10283;SDS011;5187;52.378;9.018;2022-09-04T03:38:07;3.83;;;3.10;;
10283;SDS011;5187;52.378;9.018;2022-09-04T03:40:40;5.30;;;3.20;;
10283;SDS011;5187;52.378;9.018;2022-09-04T03:43:13;6.27;;;3.50;;
10283;SDS011;5187;52.378;9.018;2022-09-04T03:45:47;3.33;;;3.03;;
10283;SDS011;5187;52.378;9.018;2022-09-04T03:48:22;3.93;;;3.20;;
10283;SDS011;5187;52.378;9.018;2022-09-04T03:50:55;3.87;;;2.87;;
10283;SDS011;5187;52.378;9.018;2022-09-04T03:53:26;5.80;;;3.30;;
10283;SDS011;5187;52.378;9.018;2022-09-04T03:56:04;5.00;;;3.20;;
10283;SDS011;5187;52.378;9.018;2022-09-04T03:58:35;4.33;;;3.17;;
10283;SDS011;5187;52.378;9.018;2022-09-04T04:01:09;4.00;;;3.10;;
10283;SDS011;5187;52.378;9.018;2022-09-04T04:03:47;4.13;;;3.10;;
10283;SDS011;5187;52.378;9.018;2022-09-04T04:06:21;4.13;;;3.13;;
10283;SDS011;5187;52.378;9.018;2022-09-04T04:11:39;4.63;;;3.40;;
10283;SDS011;5187;52.378;9.018;2022-09-04T04:14:18;4.30;;;3.30;;
10283;SDS011;5187;52.378;9.018;2022-09-04T04:16:52;4.30;;;3.40;;
10283;SDS011;5187;52.378;9.018;2022-09-04T04:19:36;5.03;;;3.13;;
10283;SDS011;5187;52.378;9.018;2022-09-04T04:27:47;3.57;;;3.10;;
10283;SDS011;5187;52.378;9.018;2022-09-04T04:30:19;4.60;;;3.40;;
10283;SDS011;5187;52.378;9.018;2022-09-04T04:35:39;4.03;;;3.30;;
10283;SDS011;5187;52.378;9.018;2022-09-04T04:38:13;4.53;;;3.50;;
10283;SDS011;5187;52.378;9.018;2022-09-04T04:40:53;5.37;;;3.40;;
10283;SDS011;5187;52.378;9.018;2022-09-04T04:43:27;5.67;;;3.40;;
10283;SDS011;5187;52.378;9.018;2022-09-04T04:45:59;4.63;;;3.47;;
10283;SDS011;5187;52.378;9.018;2022-09-04T04:51:37;4.73;;;3.17;;
10283;SDS011;5187;52.378;9.018;2022-09-04T04:54:12;5.50;;;3.53;;
10283;SDS011;5187;52.378;9.018;2022-09-04T04:56:45;6.03;;;3.30;;
10283;SDS011;5187;52.378;9.018;2022-09-04T04:59:20;5.17;;;3.73;;
10283;SDS011;5187;52.378;9.018;2022-09-04T05:01:52;3.93;;;3.53;;
10283;SDS011;5187;52.378;9.018;2022-09-04T05:04:27;5.80;;;3.20;;
10283;SDS011;5187;52.378;9.018;2022-09-04T05:07:06;4.80;;;3.43;;
10283;SDS011;5187;52.378;9.018;2022-09-04T05:09:39;7.13;;;3.30;;
10283;SDS011;5187;52.378;9.018;2022-09-04T05:12:14;4.50;;;3.40;;
10283;SDS011;5187;52.378;9.018;2022-09-04T05:14:45;5.23;;;3.50;;
10283;SDS011;5187;52.378;9.018;2022-09-04T05:17:18;4.00;;;3.30;;
10283;SDS011;5187;52.378;9.018;2022-09-04T05:19:49;6.47;;;3.50;;
10283;SDS011;5187;52.378;9.018;2022-09-04T05:22:21;6.83;;;3.60;;
10283;SDS011;5187;52.378;9.018;2022-09-04T05:24:59;3.33;;;3.03;;
10283;SDS011;5187;52.378;9.018;2022-09-04T05:27:51;4.63;;;3.50;;
10283;SDS011;5187;52.378;9.018;2022-09-04T05:30:22;4.93;;;3.40;;
10283;SDS011;5187;52.378;9.018;2022-09-04T05:32:55;5.90;;;3.53;;
10283;SDS011;5187;52.378;9.018;2022-09-04T05:35:30;6.47;;;3.33;;
10283;SDS011;5187;52.378;9.018;2022-09-04T05:38:03;3.70;;;3.37;;
10283;SDS011;5187;52.378;9.018;2022-09-04T05:40:36;4.80;;;3.40;;
10283;SDS011;5187;52.378;9.018;2022-09-04T05:43:11;4.53;;;3.67;;
10283;SDS011;5187;52.378;9.018;2022-09-04T05:45:46;3.43;;;3.13;;
10283;SDS011;5187;52.378;9.018;2022-09-04T05:48:20;4.13;;;3.17;;
10283;SDS011;5187;52.378;9.018;2022-09-04T05:53:52;4.07;;;3.10;;
10283;SDS011;5187;52.378;9.018;2022-09-04T05:59:29;5.50;;;3.57;;
10283;SDS011;5187;52.378;9.018;2022-09-04T06:02:03;5.30;;;3.53;;
10283;SDS011;5187;52.378;9.018;2022-09-04T06:04:47;4.60;;;3.57;;
10283;SDS011;5187;52.378;9.018;2022-09-04T06:07:20;4.60;;;3.20;;
10283;SDS011;5187;52.378;9.018;2022-09-04T06:09:57;5.73;;;3.60;;
10283;SDS011;5187;52.378;9.018;2022-09-04T06:12:28;5.13;;;3.50;;
10283;SDS011;5187;52.378;9.018;2022-09-04T06:15:15;5.53;;;3.53;;
10283;SDS011;5187;52.378;9.018;2022-09-04T06:17:56;4.93;;;3.67;;
10283;SDS011;5187;52.378;9.018;2022-09-04T06:20:32;3.90;;;3.40;;
10283;SDS011;5187;52.378;9.018;2022-09-04T06:25:57;4.80;;;3.30;;
10283;SDS011;5187;52.378;9.018;2022-09-04T06:28:37;4.33;;;3.47;;
10283;SDS011;5187;52.378;9.018;2022-09-04T06:31:10;4.60;;;3.30;;
10283;SDS011;5187;52.378;9.018;2022-09-04T06:33:43;6.13;;;3.60;;
10283;SDS011;5187;52.378;9.018;2022-09-04T06:39:13;3.97;;;3.40;;
10283;SDS011;5187;52.378;9.018;2022-09-04T06:41:49;3.50;;;3.20;;
10283;SDS011;5187;52.378;9.018;2022-09-04T06:44:23;5.80;;;3.50;;
10283;SDS011;5187;52.378;9.018;2022-09-04T06:46:55;4.63;;;3.20;;
10283;SDS011;5187;52.378;9.018;2022-09-04T06:49:28;4.70;;;3.50;;
10283;SDS011;5187;52.378;9.018;2022-09-04T06:52:05;3.73;;;3.40;;
10283;SDS011;5187;52.378;9.018;2022-09-04T06:54:42;6.03;;;3.40;;
10283;SDS011;5187;52.378;9.018;2022-09-04T06:57:25;4.67;;;3.20;;
10283;SDS011;5187;52.378;9.018;2022-09-04T07:00:00;6.00;;;3.57;;
10283;SDS011;5187;52.378;9.018;2022-09-04T07:02:42;4.13;;;3.23;;
10283;SDS011;5187;52.378;9.018;2022-09-04T07:05:17;5.70;;;3.37;;
10283;SDS011;5187;52.378;9.018;2022-09-04T07:07:48;4.37;;;3.40;;
10283;SDS011;5187;52.378;9.018;2022-09-04T07:10:20;3.90;;;3.10;;
10283;SDS011;5187;52.378;9.018;2022-09-04T07:12:58;3.57;;;3.27;;
10283;SDS011;5187;52.378;9.018;2022-09-04T07:18:18;3.90;;;3.13;;
10283;SDS011;5187;52.378;9.018;2022-09-04T07:20:54;4.30;;;3.47;;
10283;SDS011;5187;52.378;9.018;2022-09-04T07:23:26;3.50;;;3.20;;
10283;SDS011;5187;52.378;9.018;2022-09-04T07:26:01;5.07;;;3.60;;
10283;SDS011;5187;52.378;9.018;2022-09-04T07:28:40;3.83;;;3.30;;
10283;SDS011;5187;52.378;9.018;2022-09-04T07:31:12;4.95;;;3.20;;
10283;SDS011;5187;52.378;9.018;2022-09-04T07:33:47;6.43;;;3.20;;
10283;SDS011;5187;52.378;9.018;2022-09-04T07:36:17;5.00;;;3.30;;
10283;SDS011;5187;52.378;9.018;2022-09-04T07:38:55;4.85;;;3.47;;
10283;SDS011;5187;52.378;9.018;2022-09-04T07:41:29;5.65;;;3.05;;
10283;SDS011;5187;52.378;9.018;2022-09-04T07:44:03;4.35;;;3.20;;
10283;SDS011;5187;52.378;9.018;2022-09-04T07:46:35;3.92;;;3.50;;
10283;SDS011;5187;52.378;9.018;2022-09-04T07:49:07;4.32;;;3.25;;
10283;SDS011;5187;52.378;9.018;2022-09-04T07:51:39;3.55;;;3.10;;
10283;SDS011;5187;52.378;9.018;2022-09-04T07:54:19;3.60;;;3.10;;
10283;SDS011;5187;52.378;9.018;2022-09-04T07:57:03;4.75;;;3.33;;
10283;SDS011;5187;52.378;9.018;2022-09-04T08:02:32;5.60;;;3.47;;
10283;SDS011;5187;52.378;9.018;2022-09-04T08:05:17;4.13;;;3.30;;
10283;SDS011;5187;52.378;9.018;2022-09-04T08:07:50;5.03;;;3.00;;
10283;SDS011;5187;52.378;9.018;2022-09-04T08:10:29;4.45;;;3.40;;
10283;SDS011;5187;52.378;9.018;2022-09-04T08:13:03;3.63;;;3.33;;
10283;SDS011;5187;52.378;9.018;2022-09-04T08:15:39;4.65;;;3.40;;
10283;SDS011;5187;52.378;9.018;2022-09-04T08:18:19;3.45;;;2.97;;
10283;SDS011;5187;52.378;9.018;2022-09-04T08:20:54;4.50;;;3.10;;
10283;SDS011;5187;52.378;9.018;2022-09-04T08:23:30;3.80;;;2.88;;
10283;SDS011;5187;52.378;9.018;2022-09-04T08:26:08;6.25;;;3.22;;
10283;SDS011;5187;52.378;9.018;2022-09-04T08:28:43;3.45;;;3.08;;
10283;SDS011;5187;52.378;9.018;2022-09-04T08:31:24;3.90;;;3.33;;
10283;SDS011;5187;52.378;9.018;2022-09-04T08:36:52;3.40;;;3.10;;
10283;SDS011;5187;52.378;9.018;2022-09-04T08:39:26;4.28;;;3.30;;
10283;SDS011;5187;52.378;9.018;2022-09-04T08:42:18;4.90;;;3.30;;
10283;SDS011;5187;52.378;9.018;2022-09-04T08:50:38;3.72;;;2.97;;
10283;SDS011;5187;52.378;9.018;2022-09-04T09:01:42;5.13;;;3.25;;
10283;SDS011;5187;52.378;9.018;2022-09-04T09:10:03;5.03;;;2.97;;
10283;SDS011;5187;52.378;9.018;2022-09-04T09:15:44;3.33;;;3.03;;
10283;SDS011;5187;52.378;9.018;2022-09-04T09:18:20;5.03;;;3.00;;
10283;SDS011;5187;52.378;9.018;2022-09-04T09:20:52;3.22;;;2.65;;
10283;SDS011;5187;52.378;9.018;2022-09-04T09:23:28;4.82;;;3.00;;
10283;SDS011;5187;52.378;9.018;2022-09-04T09:26:06;4.13;;;3.03;;
10283;SDS011;5187;52.378;9.018;2022-09-04T09:31:50;5.40;;;3.08;;
10283;SDS011;5187;52.378;9.018;2022-09-04T09:37:24;4.10;;;3.38;;
10283;SDS011;5187;52.378;9.018;2022-09-04T09:40:01;4.50;;;3.15;;
10283;SDS011;5187;52.378;9.018;2022-09-04T09:42:36;4.07;;;2.97;;
10283;SDS011;5187;52.378;9.018;2022-09-04T09:50:45;5.57;;;2.90;;
10283;SDS011;5187;52.378;9.018;2022-09-04T09:53:28;4.03;;;3.05;;
10283;SDS011;5187;52.378;9.018;2022-09-04T09:56:07;8.93;;;3.38;;
10283;SDS011;5187;52.378;9.018;2022-09-04T10:01:32;2.80;;;2.47;;
10283;SDS011;5187;52.378;9.018;2022-09-04T10:04:20;3.17;;;2.70;;
10283;SDS011;5187;52.378;9.018;2022-09-04T10:07:09;5.10;;;3.05;;
10283;SDS011;5187;52.378;9.018;2022-09-04T10:13:06;5.28;;;2.88;;
10283;SDS011;5187;52.378;9.018;2022-09-04T10:15:52;3.42;;;3.13;;
10283;SDS011;5187;52.378;9.018;2022-09-04T10:24:19;4.80;;;2.90;;
10283;SDS011;5187;52.378;9.018;2022-09-04T10:32:39;3.63;;;2.70;;
10283;SDS011;5187;52.378;9.018;2022-09-04T10:35:20;4.45;;;2.67;;
10283;SDS011;5187;52.378;9.018;2022-09-04T10:38:00;4.90;;;2.85;;
10283;SDS011;5187;52.378;9.018;2022-09-04T10:40:35;5.38;;;2.85;;
10283;SDS011;5187;52.378;9.018;2022-09-04T10:45:57;4.65;;;2.78;;
10283;SDS011;5187;52.378;9.018;2022-09-04T10:48:40;4.07;;;2.60;;
10283;SDS011;5187;52.378;9.018;2022-09-04T10:54:12;3.42;;;2.55;;
10283;SDS011;5187;52.378;9.018;2022-09-04T10:56:48;3.38;;;2.75;;
10283;SDS011;5187;52.378;9.018;2022-09-04T11:10:48;3.88;;;2.92;;
10283;SDS011;5187;52.378;9.018;2022-09-04T11:16:23;4.68;;;2.70;;
10283;SDS011;5187;52.378;9.018;2022-09-04T11:24:31;5.20;;;2.90;;
10283;SDS011;5187;52.378;9.018;2022-09-04T11:29:55;4.38;;;2.70;;
10283;SDS011;5187;52.378;9.018;2022-09-04T11:35:19;2.72;;;2.50;;
10283;SDS011;5187;52.378;9.018;2022-09-04T11:37:58;2.85;;;2.65;;
10283;SDS011;5187;52.378;9.018;2022-09-04T11:43:19;4.25;;;2.70;;
10283;SDS011;5187;52.378;9.018;2022-09-04T11:46:01;3.00;;;2.58;;
10283;SDS011;5187;52.378;9.018;2022-09-04T11:48:39;5.78;;;2.42;;
10283;SDS011;5187;52.378;9.018;2022-09-04T11:51:17;5.88;;;2.67;;
10283;SDS011;5187;52.378;9.018;2022-09-04T11:53:57;3.42;;;2.60;;
10283;SDS011;5187;52.378;9.018;2022-09-04T11:56:37;4.13;;;2.75;;
10283;SDS011;5187;52.378;9.018;2022-09-04T11:59:23;2.83;;;2.22;;
10283;SDS011;5187;52.378;9.018;2022-09-04T12:04:48;2.78;;;2.45;;
10283;SDS011;5187;52.378;9.018;2022-09-04T12:07:32;3.00;;;2.70;;
10283;SDS011;5187;52.378;9.018;2022-09-04T12:10:15;3.83;;;2.85;;
10283;SDS011;5187;52.378;9.018;2022-09-04T12:12:53;6.20;;;3.08;;
10283;SDS011;5187;52.378;9.018;2022-09-04T12:15:34;5.38;;;3.20;;
10283;SDS011;5187;52.378;9.018;2022-09-04T12:24:16;2.85;;;2.45;;
10283;SDS011;5187;52.378;9.018;2022-09-04T12:30:01;4.50;;;2.67;;
10283;SDS011;5187;52.378;9.018;2022-09-04T12:35:30;2.70;;;2.50;;
10283;SDS011;5187;52.378;9.018;2022-09-04T12:38:10;3.00;;;2.63;;
10283;SDS011;5187;52.378;9.018;2022-09-04T12:40:47;5.45;;;2.63;;
10283;SDS011;5187;52.378;9.018;2022-09-04T12:43:23;3.40;;;2.78;;
10283;SDS011;5187;52.378;9.018;2022-09-04T12:45:58;3.55;;;2.28;;
10283;SDS011;5187;52.378;9.018;2022-09-04T12:48:33;4.80;;;2.75;;
10283;SDS011;5187;52.378;9.018;2022-09-04T12:51:05;3.08;;;2.45;;
10283;SDS011;5187;52.378;9.018;2022-09-04T12:53:38;5.00;;;2.90;;
10283;SDS011;5187;52.378;9.018;2022-09-04T12:56:20;7.50;;;2.70;;
10283;SDS011;5187;52.378;9.018;2022-09-04T12:58:58;4.00;;;2.63;;
10283;SDS011;5187;52.378;9.018;2022-09-04T13:01:43;4.47;;;2.40;;
10283;SDS011;5187;52.378;9.018;2022-09-04T13:04:17;3.50;;;2.80;;
10283;SDS011;5187;52.378;9.018;2022-09-04T13:06:57;4.10;;;2.65;;
10283;SDS011;5187;52.378;9.018;2022-09-04T13:09:34;4.28;;;2.60;;
10283;SDS011;5187;52.378;9.018;2022-09-04T13:12:07;6.75;;;2.80;;
10283;SDS011;5187;52.378;9.018;2022-09-04T13:14:49;2.90;;;2.58;;
10283;SDS011;5187;52.378;9.018;2022-09-04T13:17:25;3.08;;;2.47;;
10283;SDS011;5187;52.378;9.018;2022-09-04T13:19:57;3.35;;;2.60;;
10283;SDS011;5187;52.378;9.018;2022-09-04T13:22:31;4.45;;;2.65;;
10283;SDS011;5187;52.378;9.018;2022-09-04T13:25:06;4.18;;;2.40;;
10283;SDS011;5187;52.378;9.018;2022-09-04T13:27:47;3.50;;;2.40;;
10283;SDS011;5187;52.378;9.018;2022-09-04T13:30:22;4.60;;;2.53;;
10283;SDS011;5187;52.378;9.018;2022-09-04T13:33:09;3.35;;;2.25;;
10283;SDS011;5187;52.378;9.018;2022-09-04T13:35:47;6.03;;;2.70;;
10283;SDS011;5187;52.378;9.018;2022-09-04T13:38:28;3.25;;;2.55;;
10283;SDS011;5187;52.378;9.018;2022-09-04T13:41:08;3.53;;;2.42;;
10283;SDS011;5187;52.378;9.018;2022-09-04T13:43:50;3.15;;;2.45;;
10283;SDS011;5187;52.378;9.018;2022-09-04T13:46:22;2.42;;;2.30;;
10283;SDS011;5187;52.378;9.018;2022-09-04T13:48:56;4.60;;;2.42;;
10283;SDS011;5187;52.378;9.018;2022-09-04T13:51:26;3.13;;;2.50;;
10283;SDS011;5187;52.378;9.018;2022-09-04T13:54:01;3.67;;;2.47;;
10283;SDS011;5187;52.378;9.018;2022-09-04T13:56:32;5.05;;;2.67;;
10283;SDS011;5187;52.378;9.018;2022-09-04T13:59:03;3.60;;;2.50;;
10283;SDS011;5187;52.378;9.018;2022-09-04T14:01:35;3.30;;;2.60;;
10283;SDS011;5187;52.378;9.018;2022-09-04T14:04:05;4.10;;;2.50;;
10283;SDS011;5187;52.378;9.018;2022-09-04T14:06:36;2.65;;;2.45;;
10283;SDS011;5187;52.378;9.018;2022-09-04T14:09:05;3.55;;;2.65;;
10283;SDS011;5187;52.378;9.018;2022-09-04T14:11:53;3.40;;;2.60;;
10283;SDS011;5187;52.378;9.018;2022-09-04T14:14:39;4.05;;;2.63;;
10283;SDS011;5187;52.378;9.018;2022-09-04T14:17:09;2.83;;;2.22;;
10283;SDS011;5187;52.378;9.018;2022-09-04T14:19:41;3.38;;;2.63;;
10283;SDS011;5187;52.378;9.018;2022-09-04T14:22:18;3.30;;;2.40;;
10283;SDS011;5187;52.378;9.018;2022-09-04T14:24:53;2.47;;;2.20;;
10283;SDS011;5187;52.378;9.018;2022-09-04T14:27:32;6.25;;;2.50;;
10283;SDS011;5187;52.378;9.018;2022-09-04T14:30:07;3.42;;;2.35;;
10283;SDS011;5187;52.378;9.018;2022-09-04T14:32:42;4.22;;;2.75;;
10283;SDS011;5187;52.378;9.018;2022-09-04T14:35:15;6.68;;;2.42;;
10283;SDS011;5187;52.378;9.018;2022-09-04T14:37:49;2.25;;;2.05;;
10283;SDS011;5187;52.378;9.018;2022-09-04T14:40:24;4.78;;;2.83;;
10283;SDS011;5187;52.378;9.018;2022-09-04T14:42:55;2.58;;;2.38;;
10283;SDS011;5187;52.378;9.018;2022-09-04T14:45:43;5.13;;;2.13;;
10283;SDS011;5187;52.378;9.018;2022-09-04T14:48:17;5.45;;;2.55;;
10283;SDS011;5187;52.378;9.018;2022-09-04T14:50:50;3.17;;;2.65;;
10283;SDS011;5187;52.378;9.018;2022-09-04T14:53:20;5.20;;;2.40;;
10283;SDS011;5187;52.378;9.018;2022-09-04T14:56:05;2.55;;;2.35;;
10283;SDS011;5187;52.378;9.018;2022-09-04T14:58:39;4.68;;;2.55;;
10283;SDS011;5187;52.378;9.018;2022-09-04T15:01:17;3.88;;;2.38;;
10283;SDS011;5187;52.378;9.018;2022-09-04T15:03:47;3.42;;;2.47;;
10283;SDS011;5187;52.378;9.018;2022-09-04T15:06:18;2.58;;;2.38;;
10283;SDS011;5187;52.378;9.018;2022-09-04T15:08:52;4.38;;;2.20;;
10283;SDS011;5187;52.378;9.018;2022-09-04T15:11:26;5.80;;;2.50;;
10283;SDS011;5187;52.378;9.018;2022-09-04T15:13:57;3.40;;;2.55;;
10283;SDS011;5187;52.378;9.018;2022-09-04T15:16:41;2.47;;;2.28;;
10283;SDS011;5187;52.378;9.018;2022-09-04T15:19:19;3.05;;;2.40;;
10283;SDS011;5187;52.378;9.018;2022-09-04T15:21:53;3.33;;;2.00;;
10283;SDS011;5187;52.378;9.018;2022-09-04T15:24:26;3.47;;;2.30;;
10283;SDS011;5187;52.378;9.018;2022-09-04T15:26:57;2.92;;;2.50;;
10283;SDS011;5187;52.378;9.018;2022-09-04T15:29:29;3.47;;;2.53;;
10283;SDS011;5187;52.378;9.018;2022-09-04T15:32:02;3.25;;;2.47;;
10283;SDS011;5187;52.378;9.018;2022-09-04T15:34:39;4.75;;;2.47;;
10283;SDS011;5187;52.378;9.018;2022-09-04T15:37:10;2.92;;;2.25;;
10283;SDS011;5187;52.378;9.018;2022-09-04T15:39:43;3.53;;;2.42;;
10283;SDS011;5187;52.378;9.018;2022-09-04T15:42:15;2.78;;;2.50;;
10283;SDS011;5187;52.378;9.018;2022-09-04T15:44:59;4.25;;;2.47;;
10283;SDS011;5187;52.378;9.018;2022-09-04T15:47:43;3.03;;;2.72;;
10283;SDS011;5187;52.378;9.018;2022-09-04T15:50:17;2.83;;;2.50;;
10283;SDS011;5187;52.378;9.018;2022-09-04T15:52:48;2.85;;;2.50;;
10283;SDS011;5187;52.378;9.018;2022-09-04T15:55:20;2.67;;;2.47;;
10283;SDS011;5187;52.378;9.018;2022-09-04T15:57:52;2.70;;;2.50;;
10283;SDS011;5187;52.378;9.018;2022-09-04T16:00:22;2.88;;;2.17;;
10283;SDS011;5187;52.378;9.018;2022-09-04T16:02:55;2.78;;;2.58;;
10283;SDS011;5187;52.378;9.018;2022-09-04T16:05:28;2.92;;;2.53;;
10283;SDS011;5187;52.378;9.018;2022-09-04T16:08:09;3.50;;;2.40;;
10283;SDS011;5187;52.378;9.018;2022-09-04T16:10:55;3.42;;;2.70;;
10283;SDS011;5187;52.378;9.018;2022-09-04T16:13:33;2.50;;;2.30;;
10283;SDS011;5187;52.378;9.018;2022-09-04T16:16:05;3.25;;;2.42;;
10283;SDS011;5187;52.378;9.018;2022-09-04T16:18:42;2.67;;;2.25;;
10283;SDS011;5187;52.378;9.018;2022-09-04T16:21:17;2.83;;;2.60;;
10283;SDS011;5187;52.378;9.018;2022-09-04T16:23:47;2.85;;;2.63;;
10283;SDS011;5187;52.378;9.018;2022-09-04T16:26:17;2.50;;;2.30;;
10283;SDS011;5187;52.378;9.018;2022-09-04T16:28:47;2.58;;;2.30;;
10283;SDS011;5187;52.378;9.018;2022-09-04T16:31:21;3.45;;;2.63;;
10283;SDS011;5187;52.378;9.018;2022-09-04T16:33:52;2.85;;;2.40;;
10283;SDS011;5187;52.378;9.018;2022-09-04T16:36:24;5.95;;;2.70;;
10283;SDS011;5187;52.378;9.018;2022-09-04T16:38:56;2.83;;;2.53;;
10283;SDS011;5187;52.378;9.018;2022-09-04T16:41:25;2.50;;;2.30;;
10283;SDS011;5187;52.378;9.018;2022-09-04T16:44:04;4.13;;;2.45;;
10283;SDS011;5187;52.378;9.018;2022-09-04T16:46:37;2.95;;;2.50;;
10283;SDS011;5187;52.378;9.018;2022-09-04T16:49:08;2.55;;;2.33;;
10283;SDS011;5187;52.378;9.018;2022-09-04T16:51:45;3.00;;;2.70;;
10283;SDS011;5187;52.378;9.018;2022-09-04T16:54:16;3.10;;;2.60;;
10283;SDS011;5187;52.378;9.018;2022-09-04T16:56:54;3.28;;;2.47;;
10283;SDS011;5187;52.378;9.018;2022-09-04T16:59:39;3.20;;;2.58;;
10283;SDS011;5187;52.378;9.018;2022-09-04T17:02:15;3.35;;;2.55;;
10283;SDS011;5187;52.378;9.018;2022-09-04T17:04:48;5.75;;;2.65;;
10283;SDS011;5187;52.378;9.018;2022-09-04T17:07:22;3.35;;;2.53;;
10283;SDS011;5187;52.378;9.018;2022-09-04T17:09:58;4.10;;;2.75;;
10283;SDS011;5187;52.378;9.018;2022-09-04T17:12:34;2.95;;;2.22;;
10283;SDS011;5187;52.378;9.018;2022-09-04T17:15:07;2.38;;;2.17;;
10283;SDS011;5187;52.378;9.018;2022-09-04T17:17:38;2.60;;;2.40;;
10283;SDS011;5187;52.378;9.018;2022-09-04T17:20:09;3.20;;;2.50;;
10283;SDS011;5187;52.378;9.018;2022-09-04T17:22:43;2.75;;;2.50;;
10283;SDS011;5187;52.378;9.018;2022-09-04T17:25:33;3.17;;;2.20;;
10283;SDS011;5187;52.378;9.018;2022-09-04T17:28:26;4.25;;;2.40;;
10283;SDS011;5187;52.378;9.018;2022-09-04T17:31:20;2.78;;;2.47;;
10283;SDS011;5187;52.378;9.018;2022-09-04T17:33:53;2.97;;;2.30;;
10283;SDS011;5187;52.378;9.018;2022-09-04T17:36:45;8.07;;;2.83;;
10283;SDS011;5187;52.378;9.018;2022-09-04T17:39:37;2.85;;;2.60;;
10283;SDS011;5187;52.378;9.018;2022-09-04T17:42:26;2.75;;;2.50;;
10283;SDS011;5187;52.378;9.018;2022-09-04T17:44:58;12.45;;;3.55;;
10283;SDS011;5187;52.378;9.018;2022-09-04T17:47:29;10.27;;;3.03;;
10283;SDS011;5187;52.378;9.018;2022-09-04T17:49:59;16.95;;;2.88;;
10283;SDS011;5187;52.378;9.018;2022-09-04T17:52:30;13.20;;;2.92;;
10283;SDS011;5187;52.378;9.018;2022-09-04T17:55:01;6.45;;;2.80;;
10283;SDS011;5187;52.378;9.018;2022-09-04T17:57:36;6.60;;;2.50;;
10283;SDS011;5187;52.378;9.018;2022-09-04T18:00:06;4.85;;;2.50;;
10283;SDS011;5187;52.378;9.018;2022-09-04T18:02:37;3.30;;;2.50;;
10283;SDS011;5187;52.378;9.018;2022-09-04T18:05:10;2.40;;;2.20;;
10283;SDS011;5187;52.378;9.018;2022-09-04T18:07:45;2.47;;;2.28;;